Terminal Aerodrome Forecast
Issued by NWS

Home | Current Version | Previous Version | Text Only | Print | Product List | Glossary On
Versions: 1 2 3 4 5 6 7 8 9 10 11 12 13
184
FTUS46 KPDT 251720
TAFDLS
TAF
KDLS 251720Z 2518/2618 VRB04KT P6SM BKN100 BKN200
     FM252000 32010G18KT P6SM BKN080 BKN150
     FM260400 31008KT P6SM BKN100 BKN200
     FM260900 VRB03KT P6SM FEW100 SCT250=

USA.gov is the U.S. government's official web portal to all federal, state and local government web resources and services.